PWSweather.com
Personal Weather Stations
Station Observations
283002842
28300 Mainvilliers, France, MainvilliersFR 28300

28300 Mainvilliers, FranceMainvilliersFR 28300

Lat: 48.4504566, Lon: 1.4527078

Elevation: 156

Station Type: Station météorologique PCE-FWS20

http://meteo28300.fr

Latest ConditionsUpdated 5:18:15 AM GMT+01:01 Tuesday, Oct 23, 2018
Currently Today's Max Today's Min Today's Average
Temperature 40.6°F4.8°C 45.3°F7.4°C 40.6°F4.8°C 43.5°F6.4°C
Dew Point 38.8°F3.8°C 42.6°F5.9°C 38.5°F3.6°C 41.1°F5.1°C
Winds 3.1 mph WNW5.0 kmh WNW 6.9 mph -11.1 kmh - - 3.7 mph 6.0 kmh
Wind Gusts 5.4 mph8.7 kmh 9.3 mph15.0 kmh - -
Humidity 93% 93% 90% 91%
Pressure 30.52 in1033.5 mb 30.57 in1035.2 mb 30.52 in1033.5 mb -
Hour Temp Dew Point Humidity Winds Wind Gusts Pressure Precip Precip Rate Daily Precip Total
05:18 AM 40.6°F4.8°C 38.8°F3.8°C 93% 3.1 mph WNW5.0 kmh WNW 5.4 mph8.7 kmh 30.52 in1033.5 mb 0.00 in0.0 mm 0.00 in0.0 mm 0.00 in0.0 mm
05:17 AM 40.6°F4.8°C 38.8°F3.8°C 93% 3.1 mph WNW5.0 kmh WNW 5.4 mph8.7 kmh 30.52 in1033.5 mb 0.00 in0.0 mm 0.00 in0.0 mm 0.00 in0.0 mm
05:16 AM 40.6°F4.8°C 38.8°F3.8°C 93% 3.8 mph WNW6.1 kmh WNW 5.4 mph8.7 kmh 30.53 in1033.9 mb 0.00 in0.0 mm 0.00 in0.0 mm 0.00 in0.0 mm
05:15 AM 40.6°F4.8°C 38.8°F3.8°C 93% 3.8 mph W6.1 kmh W 5.4 mph8.7 kmh 30.52 in1033.5 mb 0.00 in0.0 mm 0.00 in0.0 mm 0.00 in0.0 mm
05:14 AM 40.6°F4.8°C 38.8°F3.8°C 93% 3.8 mph W6.1 kmh W 4.5 mph7.2 kmh 30.53 in1033.9 mb 0.00 in0.0 mm 0.00 in0.0 mm 0.00 in0.0 mm
05:13 AM 40.6°F4.8°C 38.8°F3.8°C 93% 3.8 mph W6.1 kmh W 4.5 mph7.2 kmh 30.53 in1033.9 mb 0.00 in0.0 mm 0.00 in0.0 mm 0.00 in0.0 mm
05:12 AM 40.6°F4.8°C 38.8°F3.8°C 93% 3.8 mph W6.1 kmh W 4.5 mph7.2 kmh 30.53 in1033.9 mb 0.00 in0.0 mm 0.00 in0.0 mm 0.00 in0.0 mm
05:11 AM 40.6°F4.8°C 38.8°F3.8°C 93% 3.1 mph W5.0 kmh W 4.5 mph7.2 kmh 30.53 in1033.9 mb 0.00 in0.0 mm 0.00 in0.0 mm 0.00 in0.0 mm
05:10 AM 40.6°F4.8°C 38.8°F3.8°C 93% 3.8 mph W6.1 kmh W 4.5 mph7.2 kmh 30.52 in1033.5 mb 0.00 in0.0 mm 0.00 in0.0 mm 0.00 in0.0 mm
05:09 AM 40.6°F4.8°C 38.8°F3.8°C 93% 3.8 mph W6.1 kmh W 4.5 mph7.2 kmh 30.52 in1033.5 mb 0.00 in0.0 mm 0.00 in0.0 mm 0.00 in0.0 mm
05:08 AM 40.6°F4.8°C 38.8°F3.8°C 93% 3.1 mph W5.0 kmh W 4.5 mph7.2 kmh 30.53 in1033.9 mb 0.00 in0.0 mm 0.00 in0.0 mm 0.00 in0.0 mm
05:07 AM 40.6°F4.8°C 38.5°F3.6°C 92% 3.1 mph W5.0 kmh W 4.5 mph7.2 kmh 30.53 in1033.9 mb 0.00 in0.0 mm 0.00 in0.0 mm 0.00 in0.0 mm
05:06 AM 40.8°F4.9°C 38.7°F3.7°C 92% 3.1 mph W5.0 kmh W 4.5 mph7.2 kmh 30.53 in1033.9 mb 0.00 in0.0 mm 0.00 in0.0 mm 0.00 in0.0 mm
05:05 AM 40.8°F4.9°C 38.7°F3.7°C 92% 3.1 mph W5.0 kmh W 5.4 mph8.7 kmh 30.53 in1033.9 mb 0.00 in0.0 mm 0.00 in0.0 mm 0.00 in0.0 mm
05:04 AM 40.8°F4.9°C 38.7°F3.7°C 92% 3.1 mph W5.0 kmh W 5.4 mph8.7 kmh 30.53 in1033.9 mb 0.00 in0.0 mm 0.00 in0.0 mm 0.00 in0.0 mm
05:03 AM 40.8°F4.9°C 38.7°F3.7°C 92% 3.1 mph W5.0 kmh W 5.4 mph8.7 kmh 30.53 in1033.9 mb 0.00 in0.0 mm 0.00 in0.0 mm 0.00 in0.0 mm
05:02 AM 40.8°F4.9°C 38.7°F3.7°C 92% 3.1 mph W5.0 kmh W 5.4 mph8.7 kmh 30.53 in1033.9 mb 0.00 in0.0 mm 0.00 in0.0 mm 0.00 in0.0 mm
05:01 AM 40.8°F4.9°C 38.7°F3.7°C 92% 3.1 mph W5.0 kmh W 5.4 mph8.7 kmh 30.53 in1033.9 mb 0.00 in0.0 mm 0.00 in0.0 mm 0.00 in0.0 mm
05:00 AM 40.8°F4.9°C 38.7°F3.7°C 92% 3.1 mph W5.0 kmh W 5.4 mph8.7 kmh 30.54 in1034.2 mb 0.00 in0.0 mm 0.00 in0.0 mm 0.00 in0.0 mm
04:59 AM 41.0°F5.0°C 38.9°F3.8°C 92% 3.1 mph W5.0 kmh W 5.4 mph8.7 kmh 30.54 in1034.2 mb 0.00 in0.0 mm 0.00 in0.0 mm 0.00 in0.0 mm
04:58 AM 41.0°F5.0°C 38.9°F3.8°C 92% 3.8 mph W6.1 kmh W 5.4 mph8.7 kmh 30.53 in1033.9 mb 0.00 in0.0 mm 0.00 in0.0 mm 0.00 in0.0 mm
04:57 AM 41.0°F5.0°C 38.9°F3.8°C 92% 3.8 mph W6.1 kmh W 5.4 mph8.7 kmh 30.53 in1033.9 mb 0.00 in0.0 mm 0.00 in0.0 mm 0.00 in0.0 mm
04:56 AM 41.2°F5.1°C 39.0°F3.9°C 92% 3.8 mph W6.1 kmh W 5.4 mph8.7 kmh 30.53 in1033.9 mb 0.00 in0.0 mm 0.00 in0.0 mm 0.00 in0.0 mm
04:55 AM 41.4°F5.2°C 39.2°F4.0°C 92% 3.8 mph W6.1 kmh W 5.4 mph8.7 kmh 30.53 in1033.9 mb 0.00 in0.0 mm 0.00 in0.0 mm 0.00 in0.0 mm
04:54 AM 41.4°F5.2°C 39.2°F4.0°C 92% 3.1 mph W5.0 kmh W 4.5 mph7.2 kmh 30.53 in1033.9 mb 0.00 in0.0 mm 0.00 in0.0 mm 0.00 in0.0 mm
04:53 AM 41.4°F5.2°C 39.2°F4.0°C 92% 3.8 mph W6.1 kmh W 4.5 mph7.2 kmh 30.53 in1033.9 mb 0.00 in0.0 mm 0.00 in0.0 mm 0.00 in0.0 mm
04:52 AM 41.5°F5.3°C 39.1°F3.9°C 91% 2.2 mph W3.5 kmh W 4.5 mph7.2 kmh 30.53 in1033.9 mb 0.00 in0.0 mm 0.00 in0.0 mm 0.00 in0.0 mm
04:51 AM 41.5°F5.3°C 39.1°F3.9°C 91% 2.2 mph W3.5 kmh W 4.5 mph7.2 kmh 30.53 in1033.9 mb 0.00 in0.0 mm 0.00 in0.0 mm 0.00 in0.0 mm
04:50 AM 41.5°F5.3°C 39.1°F3.9°C 91% 3.1 mph W5.0 kmh W 4.5 mph7.2 kmh 30.53 in1033.9 mb 0.00 in0.0 mm 0.00 in0.0 mm 0.00 in0.0 mm
04:49 AM 41.5°F5.3°C 39.1°F3.9°C 91% 3.1 mph W5.0 kmh W 4.5 mph7.2 kmh 30.53 in1033.9 mb 0.00 in0.0 mm 0.00 in0.0 mm 0.00 in0.0 mm
04:48 AM 41.7°F5.4°C 39.3°F4.1°C 91% 3.1 mph W5.0 kmh W 4.5 mph7.2 kmh 30.53 in1033.9 mb 0.00 in0.0 mm 0.00 in0.0 mm 0.00 in0.0 mm
04:47 AM 41.7°F5.4°C 39.3°F4.1°C 91% 3.1 mph W5.0 kmh W 4.5 mph7.2 kmh 30.53 in1033.9 mb 0.00 in0.0 mm 0.00 in0.0 mm 0.00 in0.0 mm
04:46 AM 41.9°F5.5°C 39.7°F4.3°C 92% 3.8 mph W6.1 kmh W 4.5 mph7.2 kmh 30.53 in1033.9 mb 0.00 in0.0 mm 0.00 in0.0 mm 0.00 in0.0 mm
04:45 AM 42.1°F5.6°C 39.9°F4.4°C 92% 3.8 mph W6.1 kmh W 4.5 mph7.2 kmh 30.53 in1033.9 mb 0.00 in0.0 mm 0.00 in0.0 mm 0.00 in0.0 mm
04:44 AM 42.4°F5.8°C 40.3°F4.6°C 92% 3.1 mph W5.0 kmh W 3.8 mph6.1 kmh 30.52 in1033.5 mb 0.00 in0.0 mm 0.00 in0.0 mm 0.00 in0.0 mm
04:43 AM 42.4°F5.8°C 40.3°F4.6°C 92% 3.1 mph W5.0 kmh W 3.8 mph6.1 kmh 30.52 in1033.5 mb 0.00 in0.0 mm 0.00 in0.0 mm 0.00 in0.0 mm
04:42 AM 42.6°F5.9°C 40.5°F4.7°C 92% 2.2 mph W3.5 kmh W 3.8 mph6.1 kmh 30.53 in1033.9 mb 0.00 in0.0 mm 0.00 in0.0 mm 0.00 in0.0 mm
04:41 AM 42.6°F5.9°C 40.5°F4.7°C 92% 2.2 mph W3.5 kmh W 3.1 mph5.0 kmh 30.52 in1033.5 mb 0.00 in0.0 mm 0.00 in0.0 mm 0.00 in0.0 mm
04:40 AM 42.6°F5.9°C 40.5°F4.7°C 92% 0.7 mph W1.1 kmh W 3.1 mph5.0 kmh 30.52 in1033.5 mb 0.00 in0.0 mm 0.00 in0.0 mm 0.00 in0.0 mm
04:39 AM 42.4°F5.8°C 40.3°F4.6°C 92% 1.6 mph W2.6 kmh W 3.8 mph6.1 kmh 30.53 in1033.9 mb 0.00 in0.0 mm 0.00 in0.0 mm 0.00 in0.0 mm
04:38 AM 42.4°F5.8°C 40.3°F4.6°C 92% 1.6 mph W2.6 kmh W 3.8 mph6.1 kmh 30.53 in1033.9 mb 0.00 in0.0 mm 0.00 in0.0 mm 0.00 in0.0 mm
04:37 AM 42.4°F5.8°C 40.3°F4.6°C 92% 0.7 mph W1.1 kmh W 3.8 mph6.1 kmh 30.53 in1033.9 mb 0.00 in0.0 mm 0.00 in0.0 mm 0.00 in0.0 mm
04:36 AM 42.3°F5.7°C 40.1°F4.5°C 92% 0.7 mph W1.1 kmh W 3.8 mph6.1 kmh 30.53 in1033.9 mb 0.00 in0.0 mm 0.00 in0.0 mm 0.00 in0.0 mm
04:35 AM 42.3°F5.7°C 40.1°F4.5°C 92% 2.2 mph W3.5 kmh W 3.8 mph6.1 kmh 30.53 in1033.9 mb 0.00 in0.0 mm 0.00 in0.0 mm 0.00 in0.0 mm
04:34 AM 42.3°F5.7°C 40.1°F4.5°C 92% 1.6 mph WNW2.6 kmh WNW 3.8 mph6.1 kmh 30.53 in1033.9 mb 0.00 in0.0 mm 0.00 in0.0 mm 0.00 in0.0 mm
04:33 AM 42.3°F5.7°C 40.1°F4.5°C 92% 1.6 mph WNW2.6 kmh WNW 3.8 mph6.1 kmh 30.53 in1033.9 mb 0.00 in0.0 mm 0.00 in0.0 mm 0.00 in0.0 mm
04:32 AM 42.3°F5.7°C 40.1°F4.5°C 92% 2.2 mph WNW3.5 kmh WNW 3.8 mph6.1 kmh 30.53 in1033.9 mb 0.00 in0.0 mm 0.00 in0.0 mm 0.00 in0.0 mm
04:31 AM 42.1°F5.6°C 39.9°F4.4°C 92% 2.2 mph WNW3.5 kmh WNW 4.5 mph7.2 kmh 30.54 in1034.2 mb 0.00 in0.0 mm 0.00 in0.0 mm 0.00 in0.0 mm
04:30 AM 42.3°F5.7°C 40.1°F4.5°C 92% 2.2 mph WNW3.5 kmh WNW 4.5 mph7.2 kmh 30.53 in1033.9 mb 0.00 in0.0 mm 0.00 in0.0 mm 0.00 in0.0 mm
04:29 AM 42.3°F5.7°C 40.1°F4.5°C 92% 3.1 mph WNW5.0 kmh WNW 4.5 mph7.2 kmh 30.54 in1034.2 mb 0.00 in0.0 mm 0.00 in0.0 mm 0.00 in0.0 mm
04:28 AM 42.3°F5.7°C 40.1°F4.5°C 92% 3.1 mph WNW5.0 kmh WNW 4.5 mph7.2 kmh 30.53 in1033.9 mb 0.00 in0.0 mm 0.00 in0.0 mm 0.00 in0.0 mm
04:27 AM 42.4°F5.8°C 40.3°F4.6°C 92% 2.2 mph WNW3.5 kmh WNW 4.5 mph7.2 kmh 30.53 in1033.9 mb 0.00 in0.0 mm 0.00 in0.0 mm 0.00 in0.0 mm
04:26 AM 42.4°F5.8°C 40.3°F4.6°C 92% 3.1 mph WNW5.0 kmh WNW 4.5 mph7.2 kmh 30.54 in1034.2 mb 0.00 in0.0 mm 0.00 in0.0 mm 0.00 in0.0 mm
04:25 AM 42.4°F5.8°C 40.3°F4.6°C 92% 2.2 mph WNW3.5 kmh WNW 4.5 mph7.2 kmh 30.54 in1034.2 mb 0.00 in0.0 mm 0.00 in0.0 mm 0.00 in0.0 mm
04:24 AM 42.4°F5.8°C 40.3°F4.6°C 92% 2.2 mph WNW3.5 kmh WNW 4.5 mph7.2 kmh 30.53 in1033.9 mb 0.00 in0.0 mm 0.00 in0.0 mm 0.00 in0.0 mm
04:23 AM 42.4°F5.8°C 40.3°F4.6°C 92% 3.1 mph W5.0 kmh W 4.5 mph7.2 kmh 30.53 in1033.9 mb 0.00 in0.0 mm 0.00 in0.0 mm 0.00 in0.0 mm
04:22 AM 42.4°F5.8°C 40.3°F4.6°C 92% 3.1 mph W5.0 kmh W 4.5 mph7.2 kmh 30.53 in1033.9 mb 0.00 in0.0 mm 0.00 in0.0 mm 0.00 in0.0 mm
04:21 AM 42.4°F5.8°C 40.3°F4.6°C 92% 3.8 mph W6.1 kmh W 4.5 mph7.2 kmh 30.53 in1033.9 mb 0.00 in0.0 mm 0.00 in0.0 mm 0.00 in0.0 mm
04:20 AM 42.6°F5.9°C 40.5°F4.7°C 92% 3.1 mph W5.0 kmh W 4.5 mph7.2 kmh 30.54 in1034.2 mb 0.00 in0.0 mm 0.00 in0.0 mm 0.00 in0.0 mm
04:19 AM 42.6°F5.9°C 40.5°F4.7°C 92% 2.2 mph W3.5 kmh W 3.8 mph6.1 kmh 30.54 in1034.2 mb 0.00 in0.0 mm 0.00 in0.0 mm 0.00 in0.0 mm
04:18 AM 42.6°F5.9°C 40.5°F4.7°C 92% 3.1 mph W5.0 kmh W 3.8 mph6.1 kmh 30.53 in1033.9 mb 0.00 in0.0 mm 0.00 in0.0 mm 0.00 in0.0 mm
04:17 AM 42.6°F5.9°C 40.5°F4.7°C 92% 3.1 mph W5.0 kmh W 3.8 mph6.1 kmh 30.54 in1034.2 mb 0.00 in0.0 mm 0.00 in0.0 mm 0.00 in0.0 mm
04:16 AM 42.8°F6.0°C 40.6°F4.8°C 92% 3.1 mph W5.0 kmh W 3.8 mph6.1 kmh 30.54 in1034.2 mb 0.00 in0.0 mm 0.00 in0.0 mm 0.00 in0.0 mm
04:15 AM 42.8°F6.0°C 40.6°F4.8°C 92% 3.1 mph W5.0 kmh W 3.8 mph6.1 kmh 30.54 in1034.2 mb 0.00 in0.0 mm 0.00 in0.0 mm 0.00 in0.0 mm
04:14 AM 42.8°F6.0°C 40.6°F4.8°C 92% 2.2 mph W3.5 kmh W 3.8 mph6.1 kmh 30.54 in1034.2 mb 0.00 in0.0 mm 0.00 in0.0 mm 0.00 in0.0 mm
04:13 AM 43.0°F6.1°C 40.8°F4.9°C 92% 2.2 mph WNW3.5 kmh WNW 3.1 mph5.0 kmh 30.54 in1034.2 mb 0.00 in0.0 mm 0.00 in0.0 mm 0.00 in0.0 mm
04:12 AM 43.0°F6.1°C 40.8°F4.9°C 92% 2.2 mph WNW3.5 kmh WNW 3.1 mph5.0 kmh 30.54 in1034.2 mb 0.00 in0.0 mm 0.00 in0.0 mm 0.00 in0.0 mm
04:11 AM 43.0°F6.1°C 40.8°F4.9°C 92% 2.2 mph NW3.5 kmh NW 3.1 mph5.0 kmh 30.54 in1034.2 mb 0.00 in0.0 mm 0.00 in0.0 mm 0.00 in0.0 mm
04:10 AM 43.0°F6.1°C 40.8°F4.9°C 92% 2.2 mph NW3.5 kmh NW 3.8 mph6.1 kmh 30.54 in1034.2 mb 0.00 in0.0 mm 0.00 in0.0 mm 0.00 in0.0 mm
04:09 AM 43.0°F6.1°C 40.8°F4.9°C 92% 2.2 mph NW3.5 kmh NW 3.8 mph6.1 kmh 30.54 in1034.2 mb 0.00 in0.0 mm 0.00 in0.0 mm 0.00 in0.0 mm
04:08 AM 42.8°F6.0°C 40.6°F4.8°C 92% 1.6 mph NW2.6 kmh NW 3.8 mph6.1 kmh 30.54 in1034.2 mb 0.00 in0.0 mm 0.00 in0.0 mm 0.00 in0.0 mm
04:07 AM 42.8°F6.0°C 40.6°F4.8°C 92% 1.6 mph NW2.6 kmh NW 3.8 mph6.1 kmh 30.54 in1034.2 mb 0.00 in0.0 mm 0.00 in0.0 mm 0.00 in0.0 mm
04:06 AM 42.8°F6.0°C 40.6°F4.8°C 92% 1.6 mph NW2.6 kmh NW 3.8 mph6.1 kmh 30.54 in1034.2 mb 0.00 in0.0 mm 0.00 in0.0 mm 0.00 in0.0 mm
04:05 AM 42.8°F6.0°C 40.6°F4.8°C 92% 2.2 mph NW3.5 kmh NW 3.8 mph6.1 kmh 30.54 in1034.2 mb 0.00 in0.0 mm 0.00 in0.0 mm 0.00 in0.0 mm
04:04 AM 42.8°F6.0°C 40.6°F4.8°C 92% 1.6 mph NW2.6 kmh NW 3.8 mph6.1 kmh 30.54 in1034.2 mb 0.00 in0.0 mm 0.00 in0.0 mm 0.00 in0.0 mm
04:03 AM 42.8°F6.0°C 40.6°F4.8°C 92% 2.2 mph NW3.5 kmh NW 3.8 mph6.1 kmh 30.54 in1034.2 mb 0.00 in0.0 mm 0.00 in0.0 mm 0.00 in0.0 mm
04:02 AM 42.8°F6.0°C 40.6°F4.8°C 92% 1.6 mph NW2.6 kmh NW 3.8 mph6.1 kmh 30.54 in1034.2 mb 0.00 in0.0 mm 0.00 in0.0 mm 0.00 in0.0 mm
04:01 AM 42.8°F6.0°C 40.6°F4.8°C 92% 2.2 mph NW3.5 kmh NW 3.8 mph6.1 kmh 30.54 in1034.2 mb 0.00 in0.0 mm 0.00 in0.0 mm 0.00 in0.0 mm
04:00 AM 42.8°F6.0°C 40.6°F4.8°C 92% 2.2 mph NW3.5 kmh NW 3.8 mph6.1 kmh 30.54 in1034.2 mb 0.00 in0.0 mm 0.00 in0.0 mm 0.00 in0.0 mm
03:59 AM 42.8°F6.0°C 40.6°F4.8°C 92% 2.2 mph NW3.5 kmh NW 4.5 mph7.2 kmh 30.54 in1034.2 mb 0.00 in0.0 mm 0.00 in0.0 mm 0.00 in0.0 mm
03:58 AM 42.8°F6.0°C 40.6°F4.8°C 92% 2.2 mph NW3.5 kmh NW 4.5 mph7.2 kmh 30.54 in1034.2 mb 0.00 in0.0 mm 0.00 in0.0 mm 0.00 in0.0 mm
03:57 AM 42.8°F6.0°C 40.6°F4.8°C 92% 1.6 mph NW2.6 kmh NW 4.5 mph7.2 kmh 30.54 in1034.2 mb 0.00 in0.0 mm 0.00 in0.0 mm 0.00 in0.0 mm
03:56 AM 42.8°F6.0°C 40.6°F4.8°C 92% 1.6 mph NW2.6 kmh NW 4.5 mph7.2 kmh 30.55 in1034.5 mb 0.00 in0.0 mm 0.00 in0.0 mm 0.00 in0.0 mm
03:55 AM 42.8°F6.0°C 40.4°F4.7°C 91% 1.6 mph NW2.6 kmh NW 4.5 mph7.2 kmh 30.54 in1034.2 mb 0.00 in0.0 mm 0.00 in0.0 mm 0.00 in0.0 mm
03:54 AM 42.6°F5.9°C 40.2°F4.6°C 91% 0.7 mph NW1.1 kmh NW 6.0 mph9.7 kmh 30.55 in1034.5 mb 0.00 in0.0 mm 0.00 in0.0 mm 0.00 in0.0 mm
03:53 AM 42.6°F5.9°C 40.2°F4.6°C 91% 0.7 mph NW1.1 kmh NW 6.0 mph9.7 kmh 30.54 in1034.2 mb 0.00 in0.0 mm 0.00 in0.0 mm 0.00 in0.0 mm
03:52 AM 42.6°F5.9°C 40.2°F4.6°C 91% 0.7 mph NW1.1 kmh NW 7.6 mph12.2 kmh 30.55 in1034.5 mb 0.00 in0.0 mm 0.00 in0.0 mm 0.00 in0.0 mm
03:51 AM 42.6°F5.9°C 40.2°F4.6°C 91% 1.6 mph NW2.6 kmh NW 8.3 mph13.4 kmh 30.55 in1034.5 mb 0.00 in0.0 mm 0.00 in0.0 mm 0.00 in0.0 mm
03:50 AM 42.6°F5.9°C 40.2°F4.6°C 91% 2.2 mph NW3.5 kmh NW 8.3 mph13.4 kmh 30.55 in1034.5 mb 0.00 in0.0 mm 0.00 in0.0 mm 0.00 in0.0 mm
03:49 AM 42.6°F5.9°C 40.1°F4.5°C 91% 2.5 mph N4.0 kmh N 8.1 mph13.0 kmh 30.54 in1034.2 mb 0.00 in0.0 mm 0.00 in0.0 mm 0.00 in0.0 mm
03:48 AM 42.6°F5.9°C 40.2°F4.6°C 91% 3.1 mph NW5.0 kmh NW 8.3 mph13.4 kmh 30.55 in1034.5 mb 0.00 in0.0 mm 0.00 in0.0 mm 0.00 in0.0 mm
03:47 AM 42.6°F5.9°C 40.2°F4.6°C 91% 3.8 mph NW6.1 kmh NW 8.3 mph13.4 kmh 30.55 in1034.5 mb 0.00 in0.0 mm 0.00 in0.0 mm 0.00 in0.0 mm
03:46 AM 42.8°F6.0°C 40.4°F4.7°C 91% 3.1 mph NW5.0 kmh NW 8.3 mph13.4 kmh 30.55 in1034.5 mb 0.00 in0.0 mm 0.00 in0.0 mm 0.00 in0.0 mm
03:45 AM 42.8°F6.0°C 40.4°F4.7°C 91% 3.1 mph NW5.0 kmh NW 8.3 mph13.4 kmh 30.55 in1034.5 mb 0.00 in0.0 mm 0.00 in0.0 mm 0.00 in0.0 mm
03:44 AM 42.8°F6.0°C 40.4°F4.7°C 91% 3.8 mph NW6.1 kmh NW 8.3 mph13.4 kmh 30.55 in1034.5 mb 0.00 in0.0 mm 0.00 in0.0 mm 0.00 in0.0 mm
03:43 AM 42.8°F6.0°C 40.4°F4.7°C 91% 3.8 mph NW6.1 kmh NW 8.3 mph13.4 kmh 30.55 in1034.5 mb 0.00 in0.0 mm 0.00 in0.0 mm 0.00 in0.0 mm
03:42 AM 42.8°F6.0°C 40.4°F4.7°C 91% 5.4 mph NW8.7 kmh NW 8.3 mph13.4 kmh 30.55 in1034.5 mb 0.00 in0.0 mm 0.00 in0.0 mm 0.00 in0.0 mm
03:41 AM 42.8°F6.0°C 40.4°F4.7°C 91% 5.4 mph NW8.7 kmh NW 8.3 mph13.4 kmh 30.55 in1034.5 mb 0.00 in0.0 mm 0.00 in0.0 mm 0.00 in0.0 mm
03:40 AM 43.0°F6.1°C 40.5°F4.7°C 91% 5.4 mph NW8.7 kmh NW 6.9 mph11.1 kmh 30.55 in1034.5 mb 0.00 in0.0 mm 0.00 in0.0 mm 0.00 in0.0 mm
03:39 AM 43.0°F6.1°C 40.5°F4.7°C 91% 5.4 mph WNW8.7 kmh WNW 6.9 mph11.1 kmh 30.55 in1034.5 mb 0.00 in0.0 mm 0.00 in0.0 mm 0.00 in0.0 mm
03:38 AM 43.0°F6.1°C 40.5°F4.7°C 91% 4.5 mph WNW7.2 kmh WNW 6.9 mph11.1 kmh 30.55 in1034.5 mb 0.00 in0.0 mm 0.00 in0.0 mm 0.00 in0.0 mm
03:37 AM 43.0°F6.1°C 40.5°F4.7°C 91% 4.5 mph NW7.2 kmh NW 6.9 mph11.1 kmh 30.55 in1034.5 mb 0.00 in0.0 mm 0.00 in0.0 mm 0.00 in0.0 mm
03:36 AM 43.2°F6.2°C 40.7°F4.8°C 91% 3.1 mph NW5.0 kmh NW 6.9 mph11.1 kmh 30.55 in1034.5 mb 0.00 in0.0 mm 0.00 in0.0 mm 0.00 in0.0 mm
03:35 AM 43.2°F6.2°C 40.7°F4.8°C 91% 4.5 mph NW7.2 kmh NW 6.9 mph11.1 kmh 30.55 in1034.5 mb 0.00 in0.0 mm 0.00 in0.0 mm 0.00 in0.0 mm
03:34 AM 43.2°F6.2°C 40.7°F4.8°C 91% 3.8 mph NW6.1 kmh NW 6.9 mph11.1 kmh 30.55 in1034.5 mb 0.00 in0.0 mm 0.00 in0.0 mm 0.00 in0.0 mm
03:33 AM 43.3°F6.3°C 40.9°F4.9°C 91% 4.5 mph NW7.2 kmh NW 6.9 mph11.1 kmh 30.55 in1034.5 mb 0.00 in0.0 mm 0.00 in0.0 mm 0.00 in0.0 mm
03:32 AM 43.3°F6.3°C 40.9°F4.9°C 91% 5.4 mph NW8.7 kmh NW 6.9 mph11.1 kmh 30.55 in1034.5 mb 0.00 in0.0 mm 0.00 in0.0 mm 0.00 in0.0 mm
03:31 AM 43.3°F6.3°C 40.9°F4.9°C 91% 3.1 mph NW5.0 kmh NW 6.0 mph9.7 kmh 30.55 in1034.5 mb 0.00 in0.0 mm 0.00 in0.0 mm 0.00 in0.0 mm
03:30 AM 43.3°F6.3°C 40.9°F4.9°C 91% 3.8 mph NW6.1 kmh NW 6.0 mph9.7 kmh 30.55 in1034.5 mb 0.00 in0.0 mm 0.00 in0.0 mm 0.00 in0.0 mm
03:29 AM 43.3°F6.3°C 40.9°F4.9°C 91% 3.1 mph NW5.0 kmh NW 5.4 mph8.7 kmh 30.55 in1034.5 mb 0.00 in0.0 mm 0.00 in0.0 mm 0.00 in0.0 mm
03:28 AM 43.3°F6.3°C 40.9°F4.9°C 91% 3.1 mph NW5.0 kmh NW 5.4 mph8.7 kmh 30.55 in1034.5 mb 0.00 in0.0 mm 0.00 in0.0 mm 0.00 in0.0 mm
03:27 AM 43.5°F6.4°C 41.1°F5.1°C 91% 3.8 mph NW6.1 kmh NW 5.4 mph8.7 kmh 30.55 in1034.5 mb 0.00 in0.0 mm 0.00 in0.0 mm 0.00 in0.0 mm
03:26 AM 43.5°F6.4°C 41.1°F5.1°C 91% 3.1 mph NW5.0 kmh NW 5.4 mph8.7 kmh 30.55 in1034.5 mb 0.00 in0.0 mm 0.00 in0.0 mm 0.00 in0.0 mm
03:25 AM 43.5°F6.4°C 41.1°F5.1°C 91% 3.1 mph NW5.0 kmh NW 7.6 mph12.2 kmh 30.54 in1034.2 mb 0.00 in0.0 mm 0.00 in0.0 mm 0.00 in0.0 mm
03:24 AM 43.5°F6.4°C 41.1°F5.1°C 91% 3.1 mph NW5.0 kmh NW 7.6 mph12.2 kmh 30.55 in1034.5 mb 0.00 in0.0 mm 0.00 in0.0 mm 0.00 in0.0 mm
03:23 AM 43.7°F6.5°C 41.2°F5.1°C 91% 2.2 mph NW3.5 kmh NW 7.6 mph12.2 kmh 30.55 in1034.5 mb 0.00 in0.0 mm 0.00 in0.0 mm 0.00 in0.0 mm
03:22 AM 43.7°F6.5°C 41.2°F5.1°C 91% 2.2 mph NW3.5 kmh NW 7.6 mph12.2 kmh 30.55 in1034.5 mb 0.00 in0.0 mm 0.00 in0.0 mm 0.00 in0.0 mm
03:21 AM 43.7°F6.5°C 41.2°F5.1°C 91% 1.6 mph NW2.6 kmh NW 7.6 mph12.2 kmh 30.55 in1034.5 mb 0.00 in0.0 mm 0.00 in0.0 mm 0.00 in0.0 mm
03:20 AM 43.7°F6.5°C 41.2°F5.1°C 91% 2.2 mph NW3.5 kmh NW 7.6 mph12.2 kmh 30.55 in1034.5 mb 0.00 in0.0 mm 0.00 in0.0 mm 0.00 in0.0 mm
03:19 AM 43.5°F6.4°C 41.1°F5.1°C 91% 3.1 mph NW5.0 kmh NW 7.6 mph12.2 kmh 30.55 in1034.5 mb 0.00 in0.0 mm 0.00 in0.0 mm 0.00 in0.0 mm
03:18 AM 43.7°F6.5°C 41.2°F5.1°C 91% 3.1 mph NW5.0 kmh NW 7.6 mph12.2 kmh 30.55 in1034.5 mb 0.00 in0.0 mm 0.00 in0.0 mm 0.00 in0.0 mm
03:17 AM 43.7°F6.5°C 41.2°F5.1°C 91% 3.1 mph NW5.0 kmh NW 7.6 mph12.2 kmh 30.55 in1034.5 mb 0.00 in0.0 mm 0.00 in0.0 mm 0.00 in0.0 mm
03:16 AM 43.7°F6.5°C 41.2°F5.1°C 91% 3.8 mph NW6.1 kmh NW 7.6 mph12.2 kmh 30.55 in1034.5 mb 0.00 in0.0 mm 0.00 in0.0 mm 0.00 in0.0 mm
03:15 AM 43.7°F6.5°C 41.2°F5.1°C 91% 6.0 mph NNW9.7 kmh NNW 7.6 mph12.2 kmh 30.55 in1034.5 mb 0.00 in0.0 mm 0.00 in0.0 mm 0.00 in0.0 mm
03:14 AM 43.7°F6.5°C 41.2°F5.1°C 91% 6.9 mph NNW11.1 kmh NNW 7.6 mph12.2 kmh 30.55 in1034.5 mb 0.00 in0.0 mm 0.00 in0.0 mm 0.00 in0.0 mm
03:13 AM 43.7°F6.5°C 41.2°F5.1°C 91% 4.5 mph NNW7.2 kmh NNW 7.6 mph12.2 kmh 30.55 in1034.5 mb 0.00 in0.0 mm 0.00 in0.0 mm 0.00 in0.0 mm
03:12 AM 43.7°F6.5°C 41.2°F5.1°C 91% 3.8 mph NNW6.1 kmh NNW 7.6 mph12.2 kmh 30.55 in1034.5 mb 0.00 in0.0 mm 0.00 in0.0 mm 0.00 in0.0 mm
03:11 AM 43.7°F6.5°C 41.2°F5.1°C 91% 3.8 mph N6.1 kmh N 7.6 mph12.2 kmh 30.55 in1034.5 mb 0.00 in0.0 mm 0.00 in0.0 mm 0.00 in0.0 mm
03:10 AM 43.7°F6.5°C 41.2°F5.1°C 91% 3.1 mph N5.0 kmh N 7.6 mph12.2 kmh 30.55 in1034.5 mb 0.00 in0.0 mm 0.00 in0.0 mm 0.00 in0.0 mm
03:09 AM 43.7°F6.5°C 41.2°F5.1°C 91% 2.2 mph N3.5 kmh N 7.6 mph12.2 kmh 30.55 in1034.5 mb 0.00 in0.0 mm 0.00 in0.0 mm 0.00 in0.0 mm
03:08 AM 43.7°F6.5°C 41.2°F5.1°C 91% 4.5 mph N7.2 kmh N 7.6 mph12.2 kmh 30.56 in1034.9 mb 0.00 in0.0 mm 0.00 in0.0 mm 0.00 in0.0 mm
03:07 AM 43.7°F6.5°C 41.2°F5.1°C 91% 3.8 mph N6.1 kmh N 7.6 mph12.2 kmh 30.56 in1034.9 mb 0.00 in0.0 mm 0.00 in0.0 mm 0.00 in0.0 mm
03:06 AM 43.5°F6.4°C 41.1°F5.1°C 91% 3.8 mph N6.1 kmh N 7.6 mph12.2 kmh 30.56 in1034.9 mb 0.00 in0.0 mm 0.00 in0.0 mm 0.00 in0.0 mm
03:05 AM 43.5°F6.4°C 41.1°F5.1°C 91% 3.8 mph N6.1 kmh N 7.6 mph12.2 kmh 30.56 in1034.9 mb 0.00 in0.0 mm 0.00 in0.0 mm 0.00 in0.0 mm
03:04 AM 43.5°F6.4°C 41.1°F5.1°C 91% 3.8 mph N6.1 kmh N 7.6 mph12.2 kmh 30.56 in1034.9 mb 0.00 in0.0 mm 0.00 in0.0 mm 0.00 in0.0 mm
03:03 AM 43.5°F6.4°C 41.1°F5.1°C 91% 3.8 mph N6.1 kmh N 7.6 mph12.2 kmh 30.56 in1034.9 mb 0.00 in0.0 mm 0.00 in0.0 mm 0.00 in0.0 mm
03:02 AM 43.5°F6.4°C 41.1°F5.1°C 91% 3.8 mph N6.1 kmh N 7.6 mph12.2 kmh 30.56 in1034.9 mb 0.00 in0.0 mm 0.00 in0.0 mm 0.00 in0.0 mm
03:01 AM 43.5°F6.4°C 41.1°F5.1°C 91% 3.8 mph N6.1 kmh N 7.6 mph12.2 kmh 30.57 in1035.2 mb 0.00 in0.0 mm 0.00 in0.0 mm 0.00 in0.0 mm
03:00 AM 43.5°F6.4°C 41.1°F5.1°C 91% 3.8 mph N6.1 kmh N 7.6 mph12.2 kmh 30.56 in1034.9 mb 0.00 in0.0 mm 0.00 in0.0 mm 0.00 in0.0 mm
02:59 AM 43.5°F6.4°C 41.1°F5.1°C 91% 3.1 mph NNW5.0 kmh NNW 7.6 mph12.2 kmh 30.57 in1035.2 mb 0.00 in0.0 mm 0.00 in0.0 mm 0.00 in0.0 mm
02:58 AM 43.5°F6.4°C 41.1°F5.1°C 91% 3.8 mph N6.1 kmh N 7.6 mph12.2 kmh 30.57 in1035.2 mb 0.00 in0.0 mm 0.00 in0.0 mm 0.00 in0.0 mm
02:57 AM 43.5°F6.4°C 41.1°F5.1°C 91% 6.0 mph NNW9.7 kmh NNW 7.6 mph12.2 kmh 30.56 in1034.9 mb 0.00 in0.0 mm 0.00 in0.0 mm 0.00 in0.0 mm
02:56 AM 43.5°F6.4°C 41.1°F5.1°C 91% 5.4 mph NNW8.7 kmh NNW 7.6 mph12.2 kmh 30.56 in1034.9 mb 0.00 in0.0 mm 0.00 in0.0 mm 0.00 in0.0 mm
02:55 AM 43.5°F6.4°C 41.1°F5.1°C 91% 4.5 mph NW7.2 kmh NW 6.9 mph11.1 kmh 30.57 in1035.2 mb 0.00 in0.0 mm 0.00 in0.0 mm 0.00 in0.0 mm
02:54 AM 43.5°F6.4°C 41.1°F5.1°C 91% 4.5 mph NW7.2 kmh NW 6.9 mph11.1 kmh 30.56 in1034.9 mb 0.00 in0.0 mm 0.00 in0.0 mm 0.00 in0.0 mm
02:53 AM 43.5°F6.4°C 41.1°F5.1°C 91% 5.4 mph NW8.7 kmh NW 6.9 mph11.1 kmh 30.56 in1034.9 mb 0.00 in0.0 mm 0.00 in0.0 mm 0.00 in0.0 mm
02:52 AM 43.5°F6.4°C 41.1°F5.1°C 91% 4.5 mph NW7.2 kmh NW 6.9 mph11.1 kmh 30.57 in1035.2 mb 0.00 in0.0 mm 0.00 in0.0 mm 0.00 in0.0 mm
02:51 AM 43.5°F6.4°C 41.1°F5.1°C 91% 4.5 mph NW7.2 kmh NW 6.9 mph11.1 kmh 30.57 in1035.2 mb 0.00 in0.0 mm 0.00 in0.0 mm 0.00 in0.0 mm
02:50 AM 43.5°F6.4°C 41.1°F5.1°C 91% 2.2 mph WNW3.5 kmh WNW 6.9 mph11.1 kmh 30.57 in1035.2 mb 0.00 in0.0 mm 0.00 in0.0 mm 0.00 in0.0 mm
02:49 AM 43.5°F6.4°C 41.1°F5.1°C 91% 3.8 mph WNW6.1 kmh WNW 6.9 mph11.1 kmh 30.56 in1034.9 mb 0.00 in0.0 mm 0.00 in0.0 mm 0.00 in0.0 mm
02:48 AM 43.5°F6.4°C 41.1°F5.1°C 91% 3.8 mph WNW6.1 kmh WNW 6.9 mph11.1 kmh 30.56 in1034.9 mb 0.00 in0.0 mm 0.00 in0.0 mm 0.00 in0.0 mm
02:47 AM 43.5°F6.4°C 41.1°F5.1°C 91% 3.8 mph WNW6.1 kmh WNW 6.9 mph11.1 kmh 30.57 in1035.2 mb 0.00 in0.0 mm 0.00 in0.0 mm 0.00 in0.0 mm
02:46 AM 43.5°F6.4°C 41.1°F5.1°C 91% 3.1 mph WNW5.0 kmh WNW 6.9 mph11.1 kmh 30.56 in1034.9 mb 0.00 in0.0 mm 0.00 in0.0 mm 0.00 in0.0 mm
02:45 AM 43.3°F6.3°C 40.9°F4.9°C 91% 3.1 mph WNW5.0 kmh WNW 6.9 mph11.1 kmh 30.57 in1035.2 mb 0.00 in0.0 mm 0.00 in0.0 mm 0.00 in0.0 mm
02:44 AM 43.3°F6.3°C 40.9°F4.9°C 91% 5.4 mph WNW8.7 kmh WNW 6.9 mph11.1 kmh 30.57 in1035.2 mb 0.00 in0.0 mm 0.00 in0.0 mm 0.00 in0.0 mm
02:43 AM 43.3°F6.3°C 40.9°F4.9°C 91% 3.1 mph NW5.0 kmh NW 6.0 mph9.7 kmh 30.56 in1034.9 mb 0.00 in0.0 mm 0.00 in0.0 mm 0.00 in0.0 mm
02:42 AM 43.3°F6.3°C 40.9°F4.9°C 91% 3.8 mph NW6.1 kmh NW 6.0 mph9.7 kmh 30.56 in1034.9 mb 0.00 in0.0 mm 0.00 in0.0 mm 0.00 in0.0 mm
02:41 AM 43.3°F6.3°C 40.9°F4.9°C 91% 3.1 mph NW5.0 kmh NW 6.0 mph9.7 kmh 30.56 in1034.9 mb 0.00 in0.0 mm 0.00 in0.0 mm 0.00 in0.0 mm
02:40 AM 43.3°F6.3°C 40.9°F4.9°C 91% 2.2 mph NW3.5 kmh NW 6.0 mph9.7 kmh 30.56 in1034.9 mb 0.00 in0.0 mm 0.00 in0.0 mm 0.00 in0.0 mm
02:39 AM 43.3°F6.3°C 40.9°F4.9°C 91% 3.8 mph NW6.1 kmh NW 6.0 mph9.7 kmh 30.56 in1034.9 mb 0.00 in0.0 mm 0.00 in0.0 mm 0.00 in0.0 mm
02:38 AM 43.3°F6.3°C 40.9°F4.9°C 91% 3.8 mph NW6.1 kmh NW 6.0 mph9.7 kmh 30.56 in1034.9 mb 0.00 in0.0 mm 0.00 in0.0 mm 0.00 in0.0 mm
02:37 AM 43.3°F6.3°C 40.9°F4.9°C 91% 3.1 mph WNW5.0 kmh WNW 6.0 mph9.7 kmh 30.56 in1034.9 mb 0.00 in0.0 mm 0.00 in0.0 mm 0.00 in0.0 mm
02:36 AM 43.5°F6.4°C 41.1°F5.1°C 91% 3.8 mph NW6.1 kmh NW 6.9 mph11.1 kmh 30.56 in1034.9 mb 0.00 in0.0 mm 0.00 in0.0 mm 0.00 in0.0 mm
02:35 AM 43.5°F6.4°C 41.1°F5.1°C 91% 3.8 mph NW6.1 kmh NW 6.9 mph11.1 kmh 30.56 in1034.9 mb 0.00 in0.0 mm 0.00 in0.0 mm 0.00 in0.0 mm
02:34 AM 43.5°F6.4°C 41.1°F5.1°C 91% 4.5 mph WNW7.2 kmh WNW 6.9 mph11.1 kmh 30.56 in1034.9 mb 0.00 in0.0 mm 0.00 in0.0 mm 0.00 in0.0 mm
02:33 AM 43.5°F6.4°C 41.1°F5.1°C 91% 4.5 mph WNW7.2 kmh WNW 6.9 mph11.1 kmh 30.56 in1034.9 mb 0.00 in0.0 mm 0.00 in0.0 mm 0.00 in0.0 mm
02:32 AM 43.5°F6.4°C 41.1°F5.1°C 91% 3.1 mph WNW5.0 kmh WNW 6.9 mph11.1 kmh 30.56 in1034.9 mb 0.00 in0.0 mm 0.00 in0.0 mm 0.00 in0.0 mm
02:31 AM 43.5°F6.4°C 41.1°F5.1°C 91% 3.8 mph WNW6.1 kmh WNW 6.9 mph11.1 kmh 30.56 in1034.9 mb 0.00 in0.0 mm 0.00 in0.0 mm 0.00 in0.0 mm
02:30 AM 43.5°F6.4°C 41.1°F5.1°C 91% 1.6 mph NW2.6 kmh NW 7.6 mph12.2 kmh 30.56 in1034.9 mb 0.00 in0.0 mm 0.00 in0.0 mm 0.00 in0.0 mm
02:29 AM 43.5°F6.4°C 41.1°F5.1°C 91% 3.1 mph NW5.0 kmh NW 7.6 mph12.2 kmh 30.56 in1034.9 mb 0.00 in0.0 mm 0.00 in0.0 mm 0.00 in0.0 mm
02:28 AM 43.5°F6.4°C 41.1°F5.1°C 91% 3.8 mph NW6.1 kmh NW 7.6 mph12.2 kmh 30.56 in1034.9 mb 0.00 in0.0 mm 0.00 in0.0 mm 0.00 in0.0 mm
02:27 AM 43.5°F6.4°C 41.1°F5.1°C 91% 4.5 mph NW7.2 kmh NW 7.6 mph12.2 kmh 30.56 in1034.9 mb 0.00 in0.0 mm 0.00 in0.0 mm 0.00 in0.0 mm
02:26 AM 43.5°F6.4°C 41.1°F5.1°C 91% 5.4 mph NW8.7 kmh NW 7.6 mph12.2 kmh 30.55 in1034.5 mb 0.00 in0.0 mm 0.00 in0.0 mm 0.00 in0.0 mm
02:25 AM 43.5°F6.4°C 41.1°F5.1°C 91% 5.4 mph NW8.7 kmh NW 7.6 mph12.2 kmh 30.56 in1034.9 mb 0.00 in0.0 mm 0.00 in0.0 mm 0.00 in0.0 mm
02:24 AM 43.5°F6.4°C 41.1°F5.1°C 91% 3.1 mph NW5.0 kmh NW 7.6 mph12.2 kmh 30.56 in1034.9 mb 0.00 in0.0 mm 0.00 in0.0 mm 0.00 in0.0 mm
02:23 AM 43.5°F6.4°C 41.1°F5.1°C 91% 3.1 mph NW5.0 kmh NW 7.6 mph12.2 kmh 30.55 in1034.5 mb 0.00 in0.0 mm 0.00 in0.0 mm 0.00 in0.0 mm
02:22 AM 43.5°F6.4°C 41.1°F5.1°C 91% 4.5 mph NW7.2 kmh NW 7.6 mph12.2 kmh 30.56 in1034.9 mb 0.00 in0.0 mm 0.00 in0.0 mm 0.00 in0.0 mm
02:21 AM 43.5°F6.4°C 41.1°F5.1°C 91% 3.8 mph NW6.1 kmh NW 7.6 mph12.2 kmh 30.56 in1034.9 mb 0.00 in0.0 mm 0.00 in0.0 mm 0.00 in0.0 mm
02:20 AM 43.5°F6.4°C 41.1°F5.1°C 91% 5.4 mph NW8.7 kmh NW 7.6 mph12.2 kmh 30.55 in1034.5 mb 0.00 in0.0 mm 0.00 in0.0 mm 0.00 in0.0 mm
02:19 AM 43.7°F6.5°C 41.2°F5.1°C 91% 3.1 mph NW5.0 kmh NW 6.9 mph11.1 kmh 30.56 in1034.9 mb 0.00 in0.0 mm 0.00 in0.0 mm 0.00 in0.0 mm
02:18 AM 43.7°F6.5°C 41.2°F5.1°C 91% 4.5 mph NW7.2 kmh NW 6.9 mph11.1 kmh 30.56 in1034.9 mb 0.00 in0.0 mm 0.00 in0.0 mm 0.00 in0.0 mm
02:17 AM 43.7°F6.5°C 41.2°F5.1°C 91% 3.8 mph NW6.1 kmh NW 6.9 mph11.1 kmh 30.56 in1034.9 mb 0.00 in0.0 mm 0.00 in0.0 mm 0.00 in0.0 mm
02:16 AM 43.7°F6.5°C 41.2°F5.1°C 91% 3.8 mph NW6.1 kmh NW 6.9 mph11.1 kmh 30.56 in1034.9 mb 0.00 in0.0 mm 0.00 in0.0 mm 0.00 in0.0 mm
02:15 AM 43.7°F6.5°C 41.2°F5.1°C 91% 3.1 mph NW5.0 kmh NW 6.9 mph11.1 kmh 30.56 in1034.9 mb 0.00 in0.0 mm 0.00 in0.0 mm 0.00 in0.0 mm
02:14 AM 43.7°F6.5°C 41.2°F5.1°C 91% 3.1 mph NW5.0 kmh NW 6.9 mph11.1 kmh 30.55 in1034.5 mb 0.00 in0.0 mm 0.00 in0.0 mm 0.00 in0.0 mm
02:13 AM 43.7°F6.5°C 41.2°F5.1°C 91% 4.5 mph NW7.2 kmh NW 6.9 mph11.1 kmh 30.55 in1034.5 mb 0.00 in0.0 mm 0.00 in0.0 mm 0.00 in0.0 mm
02:12 AM 43.9°F6.6°C 41.4°F5.2°C 91% 4.5 mph NW7.2 kmh NW 6.9 mph11.1 kmh 30.55 in1034.5 mb 0.00 in0.0 mm 0.00 in0.0 mm 0.00 in0.0 mm
02:11 AM 43.9°F6.6°C 41.4°F5.2°C 91% 4.5 mph NW7.2 kmh NW 6.9 mph11.1 kmh 30.55 in1034.5 mb 0.00 in0.0 mm 0.00 in0.0 mm 0.00 in0.0 mm
02:10 AM 43.9°F6.6°C 41.4°F5.2°C 91% 3.8 mph NW6.1 kmh NW 6.9 mph11.1 kmh 30.56 in1034.9 mb 0.00 in0.0 mm 0.00 in0.0 mm 0.00 in0.0 mm
02:09 AM 43.9°F6.6°C 41.4°F5.2°C 91% 4.5 mph NW7.2 kmh NW 6.9 mph11.1 kmh 30.56 in1034.9 mb 0.00 in0.0 mm 0.00 in0.0 mm 0.00 in0.0 mm
02:08 AM 43.9°F6.6°C 41.4°F5.2°C 91% 5.4 mph WNW8.7 kmh WNW 6.9 mph11.1 kmh 30.56 in1034.9 mb 0.00 in0.0 mm 0.00 in0.0 mm 0.00 in0.0 mm
02:07 AM 43.9°F6.6°C 41.4°F5.2°C 91% 2.2 mph WNW3.5 kmh WNW 6.0 mph9.7 kmh 30.56 in1034.9 mb 0.00 in0.0 mm 0.00 in0.0 mm 0.00 in0.0 mm
02:06 AM 43.9°F6.6°C 41.4°F5.2°C 91% 3.1 mph WNW5.0 kmh WNW 6.0 mph9.7 kmh 30.56 in1034.9 mb 0.00 in0.0 mm 0.00 in0.0 mm 0.00 in0.0 mm
02:05 AM 43.9°F6.6°C 41.4°F5.2°C 91% 2.2 mph WNW3.5 kmh WNW 6.0 mph9.7 kmh 30.56 in1034.9 mb 0.00 in0.0 mm 0.00 in0.0 mm 0.00 in0.0 mm
02:04 AM 43.9°F6.6°C 41.4°F5.2°C 91% 3.1 mph WNW5.0 kmh WNW 6.9 mph11.1 kmh 30.56 in1034.9 mb 0.00 in0.0 mm 0.00 in0.0 mm 0.00 in0.0 mm
02:03 AM 43.9°F6.6°C 41.4°F5.2°C 91% 3.8 mph WNW6.1 kmh WNW 6.9 mph11.1 kmh 30.56 in1034.9 mb 0.00 in0.0 mm 0.00 in0.0 mm 0.00 in0.0 mm
02:02 AM 43.9°F6.6°C 41.4°F5.2°C 91% 3.1 mph NW5.0 kmh NW 6.9 mph11.1 kmh 30.56 in1034.9 mb 0.00 in0.0 mm 0.00 in0.0 mm 0.00 in0.0 mm
02:01 AM 43.9°F6.6°C 41.4°F5.2°C 91% 3.1 mph NW5.0 kmh NW 8.3 mph13.4 kmh 30.56 in1034.9 mb 0.00 in0.0 mm 0.00 in0.0 mm 0.00 in0.0 mm
02:00 AM 44.1°F6.7°C 41.6°F5.3°C 91% 3.8 mph NW6.1 kmh NW 8.3 mph13.4 kmh 30.56 in1034.9 mb 0.00 in0.0 mm 0.00 in0.0 mm 0.00 in0.0 mm
01:59 AM 44.1°F6.7°C 41.6°F5.3°C 91% 3.8 mph NW6.1 kmh NW 8.3 mph13.4 kmh 30.55 in1034.5 mb 0.00 in0.0 mm 0.00 in0.0 mm 0.00 in0.0 mm
01:58 AM 43.9°F6.6°C 41.4°F5.2°C 91% 2.2 mph NW3.5 kmh NW 8.3 mph13.4 kmh 30.55 in1034.5 mb 0.00 in0.0 mm 0.00 in0.0 mm 0.00 in0.0 mm
01:57 AM 43.9°F6.6°C 41.4°F5.2°C 91% 2.2 mph NW3.5 kmh NW 8.3 mph13.4 kmh 30.55 in1034.5 mb 0.00 in0.0 mm 0.00 in0.0 mm 0.00 in0.0 mm
01:56 AM 43.9°F6.6°C 41.4°F5.2°C 91% 3.8 mph NW6.1 kmh NW 8.3 mph13.4 kmh 30.55 in1034.5 mb 0.00 in0.0 mm 0.00 in0.0 mm 0.00 in0.0 mm
01:55 AM 43.9°F6.6°C 41.4°F5.2°C 91% 3.8 mph NW6.1 kmh NW 8.3 mph13.4 kmh 30.55 in1034.5 mb 0.00 in0.0 mm 0.00 in0.0 mm 0.00 in0.0 mm
01:54 AM 43.9°F6.6°C 41.4°F5.2°C 91% 5.4 mph NW8.7 kmh NW 8.3 mph13.4 kmh 30.55 in1034.5 mb 0.00 in0.0 mm 0.00 in0.0 mm 0.00 in0.0 mm
01:53 AM 43.9°F6.6°C 41.4°F5.2°C 91% 4.5 mph NW7.2 kmh NW 8.3 mph13.4 kmh 30.56 in1034.9 mb 0.00 in0.0 mm 0.00 in0.0 mm 0.00 in0.0 mm
01:52 AM 43.9°F6.6°C 41.4°F5.2°C 91% 4.5 mph NW7.2 kmh NW 8.3 mph13.4 kmh 30.55 in1034.5 mb 0.00 in0.0 mm 0.00 in0.0 mm 0.00 in0.0 mm
01:51 AM 43.9°F6.6°C 41.1°F5.1°C 90% 5.4 mph NW8.7 kmh NW 8.3 mph13.4 kmh 30.55 in1034.5 mb 0.00 in0.0 mm 0.00 in0.0 mm 0.00 in0.0 mm
01:50 AM 43.9°F6.6°C 41.1°F5.1°C 90% 4.5 mph NW7.2 kmh NW 7.6 mph12.2 kmh 30.55 in1034.5 mb 0.00 in0.0 mm 0.00 in0.0 mm 0.00 in0.0 mm
01:49 AM 43.9°F6.6°C 41.1°F5.1°C 90% 4.5 mph NW7.2 kmh NW 7.6 mph12.2 kmh 30.55 in1034.5 mb 0.00 in0.0 mm 0.00 in0.0 mm 0.00 in0.0 mm
01:48 AM 43.9°F6.6°C 41.1°F5.1°C 90% 5.4 mph NW8.7 kmh NW 7.6 mph12.2 kmh 30.55 in1034.5 mb 0.00 in0.0 mm 0.00 in0.0 mm 0.00 in0.0 mm
01:47 AM 44.1°F6.7°C 41.3°F5.2°C 90% 4.5 mph NW7.2 kmh NW 7.6 mph12.2 kmh 30.56 in1034.9 mb 0.00 in0.0 mm 0.00 in0.0 mm 0.00 in0.0 mm
01:46 AM 44.1°F6.7°C 41.3°F5.2°C 90% 5.4 mph NW8.7 kmh NW 7.6 mph12.2 kmh 30.55 in1034.5 mb 0.00 in0.0 mm 0.00 in0.0 mm 0.00 in0.0 mm
01:45 AM 44.1°F6.7°C 41.3°F5.2°C 90% 6.0 mph NW9.7 kmh NW 7.6 mph12.2 kmh 30.55 in1034.5 mb 0.00 in0.0 mm 0.00 in0.0 mm 0.00 in0.0 mm
01:44 AM 44.1°F6.7°C 41.3°F5.2°C 90% 2.2 mph NW3.5 kmh NW 7.6 mph12.2 kmh 30.56 in1034.9 mb 0.00 in0.0 mm 0.00 in0.0 mm 0.00 in0.0 mm
01:43 AM 44.1°F6.7°C 41.3°F5.2°C 90% 2.2 mph NW3.5 kmh NW 7.6 mph12.2 kmh 30.55 in1034.5 mb 0.00 in0.0 mm 0.00 in0.0 mm 0.00 in0.0 mm
01:42 AM 44.1°F6.7°C 41.3°F5.2°C 90% 3.1 mph NW5.0 kmh NW 7.6 mph12.2 kmh 30.55 in1034.5 mb 0.00 in0.0 mm 0.00 in0.0 mm 0.00 in0.0 mm
01:41 AM 44.1°F6.7°C 41.3°F5.2°C 90% 3.1 mph NW5.0 kmh NW 9.2 mph14.8 kmh 30.55 in1034.5 mb 0.00 in0.0 mm 0.00 in0.0 mm 0.00 in0.0 mm
01:40 AM 44.2°F6.8°C 41.5°F5.3°C 90% 3.8 mph NW6.1 kmh NW 9.2 mph14.8 kmh 30.55 in1034.5 mb 0.00 in0.0 mm 0.00 in0.0 mm 0.00 in0.0 mm
01:39 AM 44.1°F6.7°C 41.3°F5.2°C 90% 5.4 mph NW8.7 kmh NW 9.2 mph14.8 kmh 30.56 in1034.9 mb 0.00 in0.0 mm 0.00 in0.0 mm 0.00 in0.0 mm
01:38 AM 44.2°F6.8°C 41.5°F5.3°C 90% 4.5 mph NW7.2 kmh NW 9.2 mph14.8 kmh 30.56 in1034.9 mb 0.00 in0.0 mm 0.00 in0.0 mm 0.00 in0.0 mm
01:37 AM 44.2°F6.8°C 41.5°F5.3°C 90% 4.5 mph NW7.2 kmh NW 9.2 mph14.8 kmh 30.56 in1034.9 mb 0.00 in0.0 mm 0.00 in0.0 mm 0.00 in0.0 mm
01:36 AM 44.2°F6.8°C 41.5°F5.3°C 90% 3.1 mph NW5.0 kmh NW 9.2 mph14.8 kmh 30.56 in1034.9 mb 0.00 in0.0 mm 0.00 in0.0 mm 0.00 in0.0 mm
01:35 AM 44.2°F6.8°C 41.5°F5.3°C 90% 3.1 mph NW5.0 kmh NW 9.2 mph14.8 kmh 30.56 in1034.9 mb 0.00 in0.0 mm 0.00 in0.0 mm 0.00 in0.0 mm
01:34 AM 44.2°F6.8°C 41.5°F5.3°C 90% 4.5 mph NW7.2 kmh NW 9.2 mph14.8 kmh 30.56 in1034.9 mb 0.00 in0.0 mm 0.00 in0.0 mm 0.00 in0.0 mm
01:33 AM 44.2°F6.8°C 41.5°F5.3°C 90% 4.5 mph NW7.2 kmh NW 9.2 mph14.8 kmh 30.56 in1034.9 mb 0.00 in0.0 mm 0.00 in0.0 mm 0.00 in0.0 mm
01:32 AM 44.4°F6.9°C 41.7°F5.4°C 90% 3.8 mph NW6.1 kmh NW 9.2 mph14.8 kmh 30.56 in1034.9 mb 0.00 in0.0 mm 0.00 in0.0 mm 0.00 in0.0 mm
01:31 AM 44.4°F6.9°C 41.7°F5.4°C 90% 6.0 mph NW9.7 kmh NW 9.2 mph14.8 kmh 30.56 in1034.9 mb 0.00 in0.0 mm 0.00 in0.0 mm 0.00 in0.0 mm
01:30 AM 44.4°F6.9°C 41.7°F5.4°C 90% 3.8 mph NW6.1 kmh NW 7.6 mph12.2 kmh 30.56 in1034.9 mb 0.00 in0.0 mm 0.00 in0.0 mm 0.00 in0.0 mm
01:29 AM 44.4°F6.9°C 41.7°F5.4°C 90% 4.5 mph NW7.2 kmh NW 7.6 mph12.2 kmh 30.56 in1034.9 mb 0.00 in0.0 mm 0.00 in0.0 mm 0.00 in0.0 mm
01:28 AM 44.4°F6.9°C 41.7°F5.4°C 90% 6.0 mph NW9.7 kmh NW 7.6 mph12.2 kmh 30.56 in1034.9 mb 0.00 in0.0 mm 0.00 in0.0 mm 0.00 in0.0 mm
01:27 AM 44.6°F7.0°C 41.8°F5.4°C 90% 5.4 mph NW8.7 kmh NW 7.6 mph12.2 kmh 30.56 in1034.9 mb 0.00 in0.0 mm 0.00 in0.0 mm 0.00 in0.0 mm
01:26 AM 44.6°F7.0°C 41.8°F5.4°C 90% 4.5 mph NW7.2 kmh NW 7.6 mph12.2 kmh 30.56 in1034.9 mb 0.00 in0.0 mm 0.00 in0.0 mm 0.00 in0.0 mm
01:25 AM 44.6°F7.0°C 41.8°F5.4°C 90% 3.8 mph NW6.1 kmh NW 7.6 mph12.2 kmh 30.56 in1034.9 mb 0.00 in0.0 mm 0.00 in0.0 mm 0.00 in0.0 mm
01:24 AM 44.6°F7.0°C 41.8°F5.4°C 90% 5.4 mph NW8.7 kmh NW 7.6 mph12.2 kmh 30.56 in1034.9 mb 0.00 in0.0 mm 0.00 in0.0 mm 0.00 in0.0 mm
01:23 AM 44.6°F7.0°C 41.8°F5.4°C 90% 6.0 mph NW9.7 kmh NW 7.6 mph12.2 kmh 30.56 in1034.9 mb 0.00 in0.0 mm 0.00 in0.0 mm 0.00 in0.0 mm
01:22 AM 44.6°F7.0°C 41.8°F5.4°C 90% 5.4 mph NW8.7 kmh NW 7.6 mph12.2 kmh 30.56 in1034.9 mb 0.00 in0.0 mm 0.00 in0.0 mm 0.00 in0.0 mm
01:21 AM 44.6°F7.0°C 41.8°F5.4°C 90% 4.5 mph NW7.2 kmh NW 7.6 mph12.2 kmh 30.56 in1034.9 mb 0.00 in0.0 mm 0.00 in0.0 mm 0.00 in0.0 mm
01:20 AM 44.6°F7.0°C 41.8°F5.4°C 90% 5.4 mph NW8.7 kmh NW 7.6 mph12.2 kmh 30.56 in1034.9 mb 0.00 in0.0 mm 0.00 in0.0 mm 0.00 in0.0 mm
01:19 AM 44.8°F7.1°C 42.0°F5.6°C 90% 3.8 mph NW6.1 kmh NW 7.6 mph12.2 kmh 30.56 in1034.9 mb 0.00 in0.0 mm 0.00 in0.0 mm 0.00 in0.0 mm
01:18 AM 44.8°F7.1°C 42.0°F5.6°C 90% 3.1 mph NW5.0 kmh NW 9.2 mph14.8 kmh 30.56 in1034.9 mb 0.00 in0.0 mm 0.00 in0.0 mm 0.00 in0.0 mm
01:17 AM 44.8°F7.1°C 42.0°F5.6°C 90% 5.4 mph NW8.7 kmh NW 9.2 mph14.8 kmh 30.57 in1035.2 mb 0.00 in0.0 mm 0.00 in0.0 mm 0.00 in0.0 mm
01:16 AM 44.8°F7.1°C 42.0°F5.6°C 90% 3.8 mph NW6.1 kmh NW 9.2 mph14.8 kmh 30.57 in1035.2 mb 0.00 in0.0 mm 0.00 in0.0 mm 0.00 in0.0 mm
01:15 AM 44.8°F7.1°C 42.0°F5.6°C 90% 5.4 mph NW8.7 kmh NW 9.2 mph14.8 kmh 30.57 in1035.2 mb 0.00 in0.0 mm 0.00 in0.0 mm 0.00 in0.0 mm
01:14 AM 44.8°F7.1°C 42.0°F5.6°C 90% 4.5 mph NW7.2 kmh NW 9.2 mph14.8 kmh 30.56 in1034.9 mb 0.00 in0.0 mm 0.00 in0.0 mm 0.00 in0.0 mm
01:13 AM 44.8°F7.1°C 42.0°F5.6°C 90% 3.1 mph NW5.0 kmh NW 9.2 mph14.8 kmh 30.56 in1034.9 mb 0.00 in0.0 mm 0.00 in0.0 mm 0.00 in0.0 mm
01:12 AM 44.8°F7.1°C 42.0°F5.6°C 90% 6.0 mph NW9.7 kmh NW 9.2 mph14.8 kmh 30.57 in1035.2 mb 0.00 in0.0 mm 0.00 in0.0 mm 0.00 in0.0 mm
01:11 AM 44.8°F7.1°C 42.0°F5.6°C 90% 5.4 mph NW8.7 kmh NW 9.2 mph14.8 kmh 30.57 in1035.2 mb 0.00 in0.0 mm 0.00 in0.0 mm 0.00 in0.0 mm
01:10 AM 44.8°F7.1°C 42.0°F5.6°C 90% 5.4 mph NW8.7 kmh NW 9.2 mph14.8 kmh 30.57 in1035.2 mb 0.00 in0.0 mm 0.00 in0.0 mm 0.00 in0.0 mm
01:09 AM 45.0°F7.2°C 42.2°F5.7°C 90% 5.4 mph NW8.7 kmh NW 9.2 mph14.8 kmh 30.57 in1035.2 mb 0.00 in0.0 mm 0.00 in0.0 mm 0.00 in0.0 mm
01:08 AM 45.0°F7.2°C 42.2°F5.7°C 90% 5.4 mph NW8.7 kmh NW 8.3 mph13.4 kmh 30.56 in1034.9 mb 0.00 in0.0 mm 0.00 in0.0 mm 0.00 in0.0 mm
01:07 AM 45.0°F7.2°C 42.2°F5.7°C 90% 3.8 mph NW6.1 kmh NW 8.3 mph13.4 kmh 30.57 in1035.2 mb 0.00 in0.0 mm 0.00 in0.0 mm 0.00 in0.0 mm
01:06 AM 45.0°F7.2°C 42.2°F5.7°C 90% 3.8 mph NW6.1 kmh NW 8.3 mph13.4 kmh 30.56 in1034.9 mb 0.00 in0.0 mm 0.00 in0.0 mm 0.00 in0.0 mm
01:05 AM 45.0°F7.2°C 42.2°F5.7°C 90% 3.8 mph NW6.1 kmh NW 8.3 mph13.4 kmh 30.56 in1034.9 mb 0.00 in0.0 mm 0.00 in0.0 mm 0.00 in0.0 mm
01:04 AM 45.0°F7.2°C 42.2°F5.7°C 90% 3.8 mph NNW6.1 kmh NNW 8.3 mph13.4 kmh 30.57 in1035.2 mb 0.00 in0.0 mm 0.00 in0.0 mm 0.00 in0.0 mm
01:03 AM 45.0°F7.2°C 42.2°F5.7°C 90% 3.8 mph NNW6.1 kmh NNW 8.3 mph13.4 kmh 30.57 in1035.2 mb 0.00 in0.0 mm 0.00 in0.0 mm 0.00 in0.0 mm
01:02 AM 45.0°F7.2°C 42.2°F5.7°C 90% 3.8 mph NNW6.1 kmh NNW 8.3 mph13.4 kmh 30.57 in1035.2 mb 0.00 in0.0 mm 0.00 in0.0 mm 0.00 in0.0 mm
01:01 AM 45.0°F7.2°C 42.2°F5.7°C 90% 3.8 mph NNW6.1 kmh NNW 8.3 mph13.4 kmh 30.57 in1035.2 mb 0.00 in0.0 mm 0.00 in0.0 mm 0.00 in0.0 mm
01:00 AM 45.0°F7.2°C 42.2°F5.7°C 90% 2.2 mph NNW3.5 kmh NNW 8.3 mph13.4 kmh 30.57 in1035.2 mb 0.00 in0.0 mm 0.00 in0.0 mm 0.00 in0.0 mm
12:59 AM 45.0°F7.2°C 42.2°F5.7°C 90% 6.9 mph NNW11.1 kmh NNW 8.3 mph13.4 kmh 30.57 in1035.2 mb 0.00 in0.0 mm 0.00 in0.0 mm 0.00 in0.0 mm
12:58 AM 45.0°F7.2°C 42.2°F5.7°C 90% 5.4 mph NNW8.7 kmh NNW 7.6 mph12.2 kmh 30.57 in1035.2 mb 0.00 in0.0 mm 0.00 in0.0 mm 0.00 in0.0 mm
12:57 AM 45.0°F7.2°C 42.2°F5.7°C 90% 3.8 mph NNW6.1 kmh NNW 7.6 mph12.2 kmh 30.57 in1035.2 mb 0.00 in0.0 mm 0.00 in0.0 mm 0.00 in0.0 mm
12:56 AM 45.0°F7.2°C 42.2°F5.7°C 90% 4.5 mph NW7.2 kmh NW 7.6 mph12.2 kmh 30.57 in1035.2 mb 0.00 in0.0 mm 0.00 in0.0 mm 0.00 in0.0 mm
12:55 AM 45.0°F7.2°C 42.2°F5.7°C 90% 4.5 mph NW7.2 kmh NW 7.6 mph12.2 kmh 30.57 in1035.2 mb 0.00 in0.0 mm 0.00 in0.0 mm 0.00 in0.0 mm
12:54 AM 45.0°F7.2°C 42.2°F5.7°C 90% 4.5 mph NW7.2 kmh NW 7.6 mph12.2 kmh 30.57 in1035.2 mb 0.00 in0.0 mm 0.00 in0.0 mm 0.00 in0.0 mm
12:53 AM 44.8°F7.1°C 42.0°F5.6°C 90% 5.4 mph NW8.7 kmh NW 7.6 mph12.2 kmh 30.57 in1035.2 mb 0.00 in0.0 mm 0.00 in0.0 mm 0.00 in0.0 mm
12:52 AM 44.8°F7.1°C 42.0°F5.6°C 90% 4.5 mph NW7.2 kmh NW 7.6 mph12.2 kmh 30.57 in1035.2 mb 0.00 in0.0 mm 0.00 in0.0 mm 0.00 in0.0 mm
12:51 AM 44.8°F7.1°C 42.0°F5.6°C 90% 3.1 mph NW5.0 kmh NW 6.9 mph11.1 kmh 30.57 in1035.2 mb 0.00 in0.0 mm 0.00 in0.0 mm 0.00 in0.0 mm
12:50 AM 45.0°F7.2°C 42.2°F5.7°C 90% 3.8 mph NW6.1 kmh NW 6.9 mph11.1 kmh 30.56 in1034.9 mb 0.00 in0.0 mm 0.00 in0.0 mm 0.00 in0.0 mm
12:49 AM 45.0°F7.2°C 42.2°F5.7°C 90% 4.5 mph NW7.2 kmh NW 6.9 mph11.1 kmh 30.56 in1034.9 mb 0.00 in0.0 mm 0.00 in0.0 mm 0.00 in0.0 mm
12:48 AM 45.0°F7.2°C 42.2°F5.7°C 90% 4.5 mph NW7.2 kmh NW 6.9 mph11.1 kmh 30.56 in1034.9 mb 0.00 in0.0 mm 0.00 in0.0 mm 0.00 in0.0 mm
12:47 AM 45.0°F7.2°C 42.2°F5.7°C 90% 2.2 mph NW3.5 kmh NW 6.9 mph11.1 kmh 30.56 in1034.9 mb 0.00 in0.0 mm 0.00 in0.0 mm 0.00 in0.0 mm
12:46 AM 45.0°F7.2°C 42.2°F5.7°C 90% 4.5 mph NW7.2 kmh NW 6.9 mph11.1 kmh 30.56 in1034.9 mb 0.00 in0.0 mm 0.00 in0.0 mm 0.00 in0.0 mm
12:45 AM 45.0°F7.2°C 42.2°F5.7°C 90% 3.1 mph NW5.0 kmh NW 7.6 mph12.2 kmh 30.56 in1034.9 mb 0.00 in0.0 mm 0.00 in0.0 mm 0.00 in0.0 mm
12:44 AM 45.0°F7.2°C 42.2°F5.7°C 90% 3.8 mph NW6.1 kmh NW 7.6 mph12.2 kmh 30.57 in1035.2 mb 0.00 in0.0 mm 0.00 in0.0 mm 0.00 in0.0 mm
12:43 AM 45.0°F7.2°C 42.2°F5.7°C 90% 3.1 mph NW5.0 kmh NW 7.6 mph12.2 kmh 30.57 in1035.2 mb 0.00 in0.0 mm 0.00 in0.0 mm 0.00 in0.0 mm
12:42 AM 45.0°F7.2°C 42.2°F5.7°C 90% 2.2 mph NW3.5 kmh NW 7.6 mph12.2 kmh 30.56 in1034.9 mb 0.00 in0.0 mm 0.00 in0.0 mm 0.00 in0.0 mm
12:41 AM 45.0°F7.2°C 42.2°F5.7°C 90% 4.5 mph NW7.2 kmh NW 7.6 mph12.2 kmh 30.57 in1035.2 mb 0.00 in0.0 mm 0.00 in0.0 mm 0.00 in0.0 mm
12:40 AM 45.0°F7.2°C 42.2°F5.7°C 90% 3.8 mph NW6.1 kmh NW 7.6 mph12.2 kmh 30.57 in1035.2 mb 0.00 in0.0 mm 0.00 in0.0 mm 0.00 in0.0 mm
12:39 AM 45.0°F7.2°C 42.2°F5.7°C 90% 3.8 mph NW6.1 kmh NW 7.6 mph12.2 kmh 30.57 in1035.2 mb 0.00 in0.0 mm 0.00 in0.0 mm 0.00 in0.0 mm
12:38 AM 45.0°F7.2°C 42.2°F5.7°C 90% 4.5 mph NW7.2 kmh NW 7.6 mph12.2 kmh 30.57 in1035.2 mb 0.00 in0.0 mm 0.00 in0.0 mm 0.00 in0.0 mm
12:37 AM 45.0°F7.2°C 42.2°F5.7°C 90% 4.5 mph NW7.2 kmh NW 7.6 mph12.2 kmh 30.57 in1035.2 mb 0.00 in0.0 mm 0.00 in0.0 mm 0.00 in0.0 mm
12:36 AM 45.0°F7.2°C 42.2°F5.7°C 90% 4.5 mph NW7.2 kmh NW 7.6 mph12.2 kmh 30.57 in1035.2 mb 0.00 in0.0 mm 0.00 in0.0 mm 0.00 in0.0 mm
12:35 AM 45.0°F7.2°C 42.2°F5.7°C 90% 5.4 mph NW8.7 kmh NW 7.6 mph12.2 kmh 30.57 in1035.2 mb 0.00 in0.0 mm 0.00 in0.0 mm 0.00 in0.0 mm
12:34 AM 45.0°F7.2°C 42.2°F5.7°C 90% 5.4 mph NW8.7 kmh NW 7.6 mph12.2 kmh 30.57 in1035.2 mb 0.00 in0.0 mm 0.00 in0.0 mm 0.00 in0.0 mm
12:33 AM 45.0°F7.2°C 42.2°F5.7°C 90% 3.8 mph NW6.1 kmh NW 7.6 mph12.2 kmh 30.57 in1035.2 mb 0.00 in0.0 mm 0.00 in0.0 mm 0.00 in0.0 mm
12:32 AM 45.0°F7.2°C 42.2°F5.7°C 90% 3.8 mph NW6.1 kmh NW 7.6 mph12.2 kmh 30.57 in1035.2 mb 0.00 in0.0 mm 0.00 in0.0 mm 0.00 in0.0 mm
12:31 AM 45.0°F7.2°C 42.2°F5.7°C 90% 3.8 mph NW6.1 kmh NW 7.6 mph12.2 kmh 30.57 in1035.2 mb 0.00 in0.0 mm 0.00 in0.0 mm 0.00 in0.0 mm
12:30 AM 45.0°F7.2°C 42.2°F5.7°C 90% 5.4 mph NW8.7 kmh NW 7.6 mph12.2 kmh 30.56 in1034.9 mb 0.00 in0.0 mm 0.00 in0.0 mm 0.00 in0.0 mm
12:29 AM 45.0°F7.2°C 42.2°F5.7°C 90% 5.4 mph NW8.7 kmh NW 7.6 mph12.2 kmh 30.56 in1034.9 mb 0.00 in0.0 mm 0.00 in0.0 mm 0.00 in0.0 mm
12:28 AM 45.0°F7.2°C 42.2°F5.7°C 90% 5.4 mph NW8.7 kmh NW 7.6 mph12.2 kmh 30.56 in1034.9 mb 0.00 in0.0 mm 0.00 in0.0 mm 0.00 in0.0 mm
12:27 AM 45.0°F7.2°C 42.2°F5.7°C 90% 4.5 mph NW7.2 kmh NW 6.0 mph9.7 kmh 30.56 in1034.9 mb 0.00 in0.0 mm 0.00 in0.0 mm 0.00 in0.0 mm
12:26 AM 45.0°F7.2°C 42.2°F5.7°C 90% 3.8 mph NW6.1 kmh NW 6.0 mph9.7 kmh 30.57 in1035.2 mb 0.00 in0.0 mm 0.00 in0.0 mm 0.00 in0.0 mm
12:25 AM 45.0°F7.2°C 42.2°F5.7°C 90% 3.8 mph NW6.1 kmh NW 7.6 mph12.2 kmh 30.56 in1034.9 mb 0.00 in0.0 mm 0.00 in0.0 mm 0.00 in0.0 mm
12:24 AM 45.0°F7.2°C 42.2°F5.7°C 90% 4.5 mph NW7.2 kmh NW 7.6 mph12.2 kmh 30.57 in1035.2 mb 0.00 in0.0 mm 0.00 in0.0 mm 0.00 in0.0 mm
12:23 AM 45.0°F7.2°C 42.2°F5.7°C 90% 4.5 mph NW7.2 kmh NW 7.6 mph12.2 kmh 30.57 in1035.2 mb 0.00 in0.0 mm 0.00 in0.0 mm 0.00 in0.0 mm
12:22 AM 45.0°F7.2°C 42.2°F5.7°C 90% 3.1 mph NNW5.0 kmh NNW 7.6 mph12.2 kmh 30.57 in1035.2 mb 0.00 in0.0 mm 0.00 in0.0 mm 0.00 in0.0 mm
12:21 AM 45.0°F7.2°C 42.2°F5.7°C 90% 3.8 mph NW6.1 kmh NW 7.6 mph12.2 kmh 30.57 in1035.2 mb 0.00 in0.0 mm 0.00 in0.0 mm 0.00 in0.0 mm
12:20 AM 45.0°F7.2°C 42.2°F5.7°C 90% 3.8 mph NW6.1 kmh NW 7.6 mph12.2 kmh 30.57 in1035.2 mb 0.00 in0.0 mm 0.00 in0.0 mm 0.00 in0.0 mm
12:19 AM 45.0°F7.2°C 42.2°F5.7°C 90% 3.1 mph NW5.0 kmh NW 7.6 mph12.2 kmh 30.57 in1035.2 mb 0.00 in0.0 mm 0.00 in0.0 mm 0.00 in0.0 mm
12:18 AM 45.0°F7.2°C 42.2°F5.7°C 90% 3.1 mph NW5.0 kmh NW 7.6 mph12.2 kmh 30.56 in1034.9 mb 0.00 in0.0 mm 0.00 in0.0 mm 0.00 in0.0 mm
12:17 AM 45.1°F7.3°C 42.4°F5.8°C 90% 4.5 mph NW7.2 kmh NW 7.6 mph12.2 kmh 30.56 in1034.9 mb 0.00 in0.0 mm 0.00 in0.0 mm 0.00 in0.0 mm
12:16 AM 45.1°F7.3°C 42.4°F5.8°C 90% 3.8 mph NW6.1 kmh NW 7.6 mph12.2 kmh 30.56 in1034.9 mb 0.00 in0.0 mm 0.00 in0.0 mm 0.00 in0.0 mm
12:15 AM 45.1°F7.3°C 42.4°F5.8°C 90% 6.0 mph NW9.7 kmh NW 7.6 mph12.2 kmh 30.56 in1034.9 mb 0.00 in0.0 mm 0.00 in0.0 mm 0.00 in0.0 mm
12:14 AM 45.1°F7.3°C 42.4°F5.8°C 90% 4.5 mph NW7.2 kmh NW 6.9 mph11.1 kmh 30.56 in1034.9 mb 0.00 in0.0 mm 0.00 in0.0 mm 0.00 in0.0 mm
12:13 AM 45.1°F7.3°C 42.4°F5.8°C 90% 4.5 mph NW7.2 kmh NW 6.9 mph11.1 kmh 30.56 in1034.9 mb 0.00 in0.0 mm 0.00 in0.0 mm 0.00 in0.0 mm
12:12 AM 45.1°F7.3°C 42.4°F5.8°C 90% 4.5 mph NW7.2 kmh NW 7.6 mph12.2 kmh 30.57 in1035.2 mb 0.00 in0.0 mm 0.00 in0.0 mm 0.00 in0.0 mm
12:11 AM 45.1°F7.3°C 42.4°F5.8°C 90% 3.8 mph NW6.1 kmh NW 7.6 mph12.2 kmh 30.56 in1034.9 mb 0.00 in0.0 mm 0.00 in0.0 mm 0.00 in0.0 mm
12:10 AM 45.1°F7.3°C 42.4°F5.8°C 90% 3.8 mph NW6.1 kmh NW 7.6 mph12.2 kmh 30.57 in1035.2 mb 0.00 in0.0 mm 0.00 in0.0 mm 0.00 in0.0 mm
12:09 AM 45.3°F7.4°C 42.6°F5.9°C 90% 4.5 mph NW7.2 kmh NW 7.6 mph12.2 kmh 30.57 in1035.2 mb 0.00 in0.0 mm 0.00 in0.0 mm 0.00 in0.0 mm
12:08 AM 45.3°F7.4°C 42.6°F5.9°C 90% 3.8 mph NW6.1 kmh NW 7.6 mph12.2 kmh 30.57 in1035.2 mb 0.00 in0.0 mm 0.00 in0.0 mm 0.00 in0.0 mm
12:07 AM 45.3°F7.4°C 42.6°F5.9°C 90% 4.5 mph NW7.2 kmh NW 7.6 mph12.2 kmh 30.56 in1034.9 mb 0.00 in0.0 mm 0.00 in0.0 mm 0.00 in0.0 mm
12:06 AM 45.3°F7.4°C 42.6°F5.9°C 90% 3.8 mph NW6.1 kmh NW 7.6 mph12.2 kmh 30.56 in1034.9 mb 0.00 in0.0 mm 0.00 in0.0 mm 0.00 in0.0 mm
12:05 AM 45.3°F7.4°C 42.6°F5.9°C 90% 3.8 mph NW6.1 kmh NW 7.6 mph12.2 kmh 30.57 in1035.2 mb 0.00 in0.0 mm 0.00 in0.0 mm 0.00 in0.0 mm
12:04 AM 45.1°F7.3°C 42.4°F5.8°C 90% 5.4 mph NW8.7 kmh NW 7.6 mph12.2 kmh 30.57 in1035.2 mb 0.00 in0.0 mm 0.00 in0.0 mm 0.00 in0.0 mm
12:03 AM 45.1°F7.3°C 42.4°F5.8°C 90% 5.4 mph NW8.7 kmh NW 7.6 mph12.2 kmh 30.57 in1035.2 mb 0.00 in0.0 mm 0.00 in0.0 mm 0.00 in0.0 mm
12:02 AM 45.1°F7.3°C 42.4°F5.8°C 90% 5.4 mph NW8.7 kmh NW 7.6 mph12.2 kmh 30.57 in1035.2 mb 0.00 in0.0 mm 0.00 in0.0 mm 0.00 in0.0 mm
12:01 AM 45.3°F7.4°C 42.6°F5.9°C 90% 4.5 mph NW7.2 kmh NW 7.6 mph12.2 kmh 30.57 in1035.2 mb 0.00 in0.0 mm 0.00 in0.0 mm 0.00 in0.0 mm
12:00 AM 45.3°F7.4°C 42.6°F5.9°C 90% 3.8 mph NW6.1 kmh NW 6.9 mph11.1 kmh 30.57 in1035.2 mb 0.00 in0.0 mm 0.00 in0.0 mm 0.00 in0.0 mm